sensor_id;sensor_type;location;lat;lon;timestamp;pressure;altitude;pressure_sealevel;temperature;humidity
47710;BME280;33473;51.640;5.892;2023-01-28T00:06:48;102800;;;9.0;46.0
47710;BME280;33473;51.640;5.892;2023-01-28T00:20:08;102800;;;8.8;46.0
47710;BME280;33473;51.640;5.892;2023-01-28T00:33:28;102800;;;8.9;44.0
47710;BME280;33473;51.640;5.892;2023-01-28T00:46:47;102800;;;9.0;45.0
47710;BME280;33473;51.640;5.892;2023-01-28T01:00:07;102800;;;8.9;47.0
47710;BME280;33473;51.640;5.892;2023-01-28T01:13:27;102800;;;8.5;46.0
47710;BME280;33473;51.640;5.892;2023-01-28T01:26:46;102800;;;8.5;46.0
47710;BME280;33473;51.640;5.892;2023-01-28T01:40:06;102800;;;8.7;46.0
47710;BME280;33473;51.640;5.892;2023-01-28T01:53:26;102800;;;8.3;45.0
47710;BME280;33473;51.640;5.892;2023-01-28T02:06:45;102800;;;8.6;45.0
47710;BME280;33473;51.640;5.892;2023-01-28T02:20:05;102800;;;8.8;44.0
47710;BME280;33473;51.640;5.892;2023-01-28T02:33:25;102800;;;8.7;45.0
47710;BME280;33473;51.640;5.892;2023-01-28T02:46:44;102800;;;8.7;45.0
47710;BME280;33473;51.640;5.892;2023-01-28T03:00:04;102800;;;8.5;46.0
47710;BME280;33473;51.640;5.892;2023-01-28T03:13:24;102800;;;8.2;46.0
47710;BME280;33473;51.640;5.892;2023-01-28T03:26:43;102800;;;8.4;46.0
47710;BME280;33473;51.640;5.892;2023-01-28T03:40:03;102800;;;8.3;46.0
47710;BME280;33473;51.640;5.892;2023-01-28T03:53:23;102800;;;8.3;45.0
47710;BME280;33473;51.640;5.892;2023-01-28T04:06:43;102800;;;8.1;45.0
47710;BME280;33473;51.640;5.892;2023-01-28T04:20:02;102800;;;7.2;44.0
47710;BME280;33473;51.640;5.892;2023-01-28T04:33:22;102800;;;7.9;43.0
47710;BME280;33473;51.640;5.892;2023-01-28T04:46:42;102800;;;8.0;43.0
47710;BME280;33473;51.640;5.892;2023-01-28T05:00:01;102800;;;8.1;43.0
47710;BME280;33473;51.640;5.892;2023-01-28T05:13:21;102800;;;7.7;44.0
47710;BME280;33473;51.640;5.892;2023-01-28T05:26:41;102800;;;8.0;44.0
47710;BME280;33473;51.640;5.892;2023-01-28T05:40:00;102800;;;7.7;45.0
47710;BME280;33473;51.640;5.892;2023-01-28T05:53:20;102800;;;7.0;46.0
47710;BME280;33473;51.640;5.892;2023-01-28T06:06:40;102800;;;6.4;45.0
47710;BME280;33473;51.640;5.892;2023-01-28T06:19:59;102900;;;6.6;45.0
47710;BME280;33473;51.640;5.892;2023-01-28T06:33:19;102900;;;6.6;45.0
47710;BME280;33473;51.640;5.892;2023-01-28T06:46:39;102900;;;6.9;44.0
47710;BME280;33473;51.640;5.892;2023-01-28T06:59:58;102900;;;7.1;43.0
47710;BME280;33473;51.640;5.892;2023-01-28T07:13:18;102900;;;7.2;42.0
47710;BME280;33473;51.640;5.892;2023-01-28T07:26:38;102900;;;7.5;43.0
47710;BME280;33473;51.640;5.892;2023-01-28T07:39:57;102900;;;6.2;46.0
47710;BME280;33473;51.640;5.892;2023-01-28T07:53:17;102900;;;6.7;45.0
47710;BME280;33473;51.640;5.892;2023-01-28T08:06:37;102900;;;6.4;46.0
47710;BME280;33473;51.640;5.892;2023-01-28T08:19:56;102900;;;7.1;44.0
47710;BME280;33473;51.640;5.892;2023-01-28T08:33:16;103000;;;6.9;45.0
47710;BME280;33473;51.640;5.892;2023-01-28T08:46:36;103000;;;6.9;46.0
47710;BME280;33473;51.640;5.892;2023-01-28T08:59:56;103000;;;7.4;45.0
47710;BME280;33473;51.640;5.892;2023-01-28T09:13:15;103000;;;7.6;44.0
47710;BME280;33473;51.640;5.892;2023-01-28T09:26:35;103000;;;7.8;43.0
47710;BME280;33473;51.640;5.892;2023-01-28T09:39:55;103000;;;8.0;43.0
47710;BME280;33473;51.640;5.892;2023-01-28T09:53:14;103000;;;8.2;42.0
47710;BME280;33473;51.640;5.892;2023-01-28T10:06:34;103000;;;7.0;45.0
47710;BME280;33473;51.640;5.892;2023-01-28T10:19:54;103000;;;6.9;44.0
47710;BME280;33473;51.640;5.892;2023-01-28T10:33:13;103000;;;7.2;44.0
47710;BME280;33473;51.640;5.892;2023-01-28T10:46:33;103000;;;7.1;44.0
47710;BME280;33473;51.640;5.892;2023-01-28T10:59:53;103000;;;7.4;44.0
47710;BME280;33473;51.640;5.892;2023-01-28T11:13:12;103000;;;6.0;47.0
47710;BME280;33473;51.640;5.892;2023-01-28T11:26:32;103000;;;7.7;43.0
47710;BME280;33473;51.640;5.892;2023-01-28T11:39:52;103000;;;8.2;43.0
47710;BME280;33473;51.640;5.892;2023-01-28T11:53:11;103000;;;8.5;42.0
47710;BME280;33473;51.640;5.892;2023-01-28T12:06:31;102900;;;8.6;41.0
47710;BME280;33473;51.640;5.892;2023-01-28T12:19:51;102900;;;8.7;40.0
47710;BME280;33473;51.640;5.892;2023-01-28T12:33:10;102900;;;9.4;39.0
47710;BME280;33473;51.640;5.892;2023-01-28T12:46:30;102900;;;8.5;41.0
47710;BME280;33473;51.640;5.892;2023-01-28T12:59:50;102900;;;9.2;39.0
47710;BME280;33473;51.640;5.892;2023-01-28T13:13:09;102900;;;8.7;40.0
47710;BME280;33473;51.640;5.892;2023-01-28T13:26:29;102900;;;9.3;39.0
47710;BME280;33473;51.640;5.892;2023-01-28T13:39:49;102900;;;9.1;38.0
47710;BME280;33473;51.640;5.892;2023-01-28T13:53:08;102900;;;9.0;39.0
47710;BME280;33473;51.640;5.892;2023-01-28T14:06:28;102800;;;8.6;41.0
47710;BME280;33473;51.640;5.892;2023-01-28T14:19:48;102800;;;8.9;40.0
47710;BME280;33473;51.640;5.892;2023-01-28T14:33:07;102900;;;8.9;40.0
47710;BME280;33473;51.640;5.892;2023-01-28T14:46:27;102900;;;8.8;40.0
47710;BME280;33473;51.640;5.892;2023-01-28T14:59:47;102900;;;8.6;40.0
47710;BME280;33473;51.640;5.892;2023-01-28T15:13:06;102900;;;8.3;41.0
47710;BME280;33473;51.640;5.892;2023-01-28T15:26:26;102900;;;8.2;42.0
47710;BME280;33473;51.640;5.892;2023-01-28T15:39:46;102900;;;8.1;42.0
47710;BME280;33473;51.640;5.892;2023-01-28T15:53:05;102900;;;8.0;42.0
47710;BME280;33473;51.640;5.892;2023-01-28T16:06:25;103000;;;7.6;43.0
47710;BME280;33473;51.640;5.892;2023-01-28T16:19:45;102900;;;7.2;44.0
47710;BME280;33473;51.640;5.892;2023-01-28T16:33:04;102900;;;6.9;45.0
47710;BME280;33473;51.640;5.892;2023-01-28T16:46:24;103000;;;6.5;45.0
47710;BME280;33473;51.640;5.892;2023-01-28T16:59:44;102900;;;6.2;46.0
47710;BME280;33473;51.640;5.892;2023-01-28T17:13:03;102900;;;5.8;47.0
47710;BME280;33473;51.640;5.892;2023-01-28T17:26:23;102900;;;5.6;47.0
47710;BME280;33473;51.640;5.892;2023-01-28T17:39:43;103000;;;5.3;48.0
47710;BME280;33473;51.640;5.892;2023-01-28T17:53:02;103000;;;5.1;49.0
47710;BME280;33473;51.640;5.892;2023-01-28T18:06:22;103000;;;5.0;49.0
47710;BME280;33473;51.640;5.892;2023-01-28T18:19:42;103000;;;4.9;50.0
47710;BME280;33473;51.640;5.892;2023-01-28T18:33:02;103000;;;5.1;51.0
47710;BME280;33473;51.640;5.892;2023-01-28T18:46:21;103000;;;5.0;50.0
47710;BME280;33473;51.640;5.892;2023-01-28T18:59:41;103000;;;4.8;50.0
47710;BME280;33473;51.640;5.892;2023-01-28T19:13:01;103000;;;4.6;50.0
47710;BME280;33473;51.640;5.892;2023-01-28T19:26:20;103000;;;4.4;50.0
47710;BME280;33473;51.640;5.892;2023-01-28T19:39:40;103000;;;4.3;51.0
47710;BME280;33473;51.640;5.892;2023-01-28T19:53:00;103000;;;4.3;52.0
47710;BME280;33473;51.640;5.892;2023-01-28T20:06:19;103000;;;4.4;51.0
47710;BME280;33473;51.640;5.892;2023-01-28T20:19:39;103000;;;4.4;51.0
47710;BME280;33473;51.640;5.892;2023-01-28T20:32:59;103000;;;4.3;52.0
47710;BME280;33473;51.640;5.892;2023-01-28T20:46:18;103000;;;4.4;51.0
47710;BME280;33473;51.640;5.892;2023-01-28T20:59:38;103000;;;4.3;51.0
47710;BME280;33473;51.640;5.892;2023-01-28T21:12:58;103000;;;4.1;51.0
47710;BME280;33473;51.640;5.892;2023-01-28T21:26:17;103000;;;4.0;51.0
47710;BME280;33473;51.640;5.892;2023-01-28T21:39:37;103000;;;3.8;51.0
47710;BME280;33473;51.640;5.892;2023-01-28T21:52:57;103000;;;3.7;52.0
47710;BME280;33473;51.640;5.892;2023-01-28T22:06:16;103000;;;3.9;52.0
47710;BME280;33473;51.640;5.892;2023-01-28T22:19:36;103000;;;3.9;52.0
47710;BME280;33473;51.640;5.892;2023-01-28T22:32:56;103000;;;3.9;52.0
47710;BME280;33473;51.640;5.892;2023-01-28T22:46:16;103000;;;3.8;52.0
47710;BME280;33473;51.640;5.892;2023-01-28T22:59:35;103000;;;3.8;51.0
47710;BME280;33473;51.640;5.892;2023-01-28T23:12:55;102900;;;4.1;52.0
47710;BME280;33473;51.640;5.892;2023-01-28T23:26:15;102900;;;4.1;52.0
47710;BME280;33473;51.640;5.892;2023-01-28T23:39:34;102900;;;4.1;52.0
47710;BME280;33473;51.640;5.892;2023-01-28T23:52:54;102900;;;4.2;52.0
